createdAt,value
2023-03-23T15:58:20.643Z,98669.69
2023-03-23T16:00:50.230Z,98667.72
2023-03-23T16:03:22.091Z,98667.69
2023-03-23T16:05:51.161Z,98671.84
2023-03-23T16:08:18.621Z,98669.72
2023-03-23T16:10:46.374Z,98672.44
2023-03-23T16:13:13.850Z,98668.94
2023-03-23T16:15:41.732Z,98657.75
2023-03-23T16:18:18.153Z,98664.31
2023-03-23T16:20:46.076Z,98662.97
2023-03-23T16:23:15.205Z,98659.19
2023-03-23T16:25:42.836Z,98673.00
2023-03-23T16:28:12.777Z,98675.03
2023-03-23T16:30:41.208Z,98670.88
2023-03-23T16:33:08.840Z,98686.03
2023-03-23T16:35:37.122Z,98691.84
2023-03-23T16:38:07.392Z,98672.25
2023-03-23T16:40:38.194Z,98673.84
2023-03-23T16:43:08.464Z,98661.69
2023-03-23T16:45:37.835Z,98656.28
2023-03-23T16:48:06.224Z,98659.38
2023-03-23T16:50:33.917Z,98660.97
2023-03-23T16:53:01.789Z,98660.75
2023-03-23T16:55:31.284Z,98665.91
2023-03-23T16:58:15.354Z,98677.38
2023-03-23T17:00:46.309Z,98673.22
2023-03-23T17:03:16.100Z,98674.84
2023-03-23T17:05:44.876Z,98688.50
2023-03-23T17:08:16.122Z,98688.09
2023-03-23T17:10:53.868Z,98689.84
2023-03-23T17:13:22.749Z,98694.34
2023-03-23T17:15:54.024Z,98697.63
2023-03-23T17:18:21.570Z,98695.53
2023-03-23T17:20:49.101Z,98693.50
2023-03-23T17:23:17.077Z,98700.53
2023-03-23T17:25:45.468Z,98711.50
2023-03-23T17:28:13.200Z,98706.25
2023-03-23T17:30:43.231Z,98707.97
2023-03-23T17:33:11.278Z,98717.94
2023-03-23T17:35:38.936Z,98716.59
2023-03-23T17:38:06.347Z,98707.84
2023-03-23T17:40:33.860Z,98707.47
2023-03-23T17:43:01.346Z,98710.38
2023-03-23T17:45:28.888Z,98710.16
2023-03-23T17:47:57.801Z,98713.19
2023-03-23T17:50:25.506Z,98718.66
2023-03-23T17:52:53.034Z,98718.53
2023-03-23T17:55:20.613Z,98720.13
2023-03-23T17:57:48.074Z,98720.72
2023-03-23T18:00:16.321Z,98716.47
2023-03-23T18:02:44.052Z,98714.41
2023-03-23T18:05:13.063Z,98707.72
2023-03-23T18:07:40.636Z,98702.13
2023-03-23T18:10:12.412Z,98704.06
2023-03-23T18:12:40.288Z,98704.53
2023-03-23T18:15:08.871Z,98696.16
2023-03-23T18:17:36.435Z,98688.50
2023-03-23T18:20:04.127Z,98694.81
2023-03-23T18:22:32.998Z,98690.44
2023-03-23T18:25:02.497Z,98686.69
2023-03-23T18:27:29.893Z,98677.06
2023-03-23T18:29:57.365Z,98678.41
2023-03-23T18:32:24.828Z,98676.81
2023-03-23T18:34:52.482Z,98673.06
2023-03-23T18:37:21.003Z,98676.34
2023-03-23T18:39:49.764Z,98670.47
2023-03-23T18:42:17.211Z,98663.03
2023-03-23T18:44:44.679Z,98663.78
2023-03-23T18:47:12.305Z,98655.16
2023-03-23T18:49:39.911Z,98659.06
2023-03-23T18:52:07.379Z,98659.28
2023-03-23T18:54:35.009Z,98651.53
2023-03-23T18:57:04.215Z,98656.38
2023-03-23T18:59:33.748Z,98656.38
2023-03-23T19:02:01.559Z,98653.66
2023-03-23T19:04:31.478Z,98658.78
2023-03-23T19:06:59.022Z,98660.72
2023-03-23T19:09:27.385Z,98653.38
2023-03-23T19:11:54.898Z,98654.81
2023-03-23T19:14:23.734Z,98640.03
2023-03-23T19:16:52.174Z,98635.16
2023-03-23T19:19:20.496Z,98630.91
2023-03-23T19:21:48.193Z,98632.34
2023-03-23T19:24:16.755Z,98638.94
2023-03-23T19:26:46.470Z,98628.63
2023-03-23T19:31:49.358Z,98627.97
2023-03-23T19:34:17.909Z,98634.22
2023-03-23T19:36:54.167Z,98632.72
2023-03-23T19:39:23.646Z,98629.59
2023-03-23T19:41:51.824Z,98625.44
2023-03-23T19:44:19.264Z,98623.84
2023-03-23T19:46:47.834Z,98616.00
2023-03-23T19:49:16.795Z,98612.59
2023-03-23T19:51:44.420Z,98613.19
2023-03-23T19:54:13.093Z,98601.63
2023-03-23T19:56:41.314Z,98596.28
2023-03-23T19:59:10.536Z,98591.50
2023-03-23T20:01:39.248Z,98585.03
2023-03-23T20:04:07.111Z,98574.63
2023-03-23T20:06:37.658Z,98576.34
2023-03-23T20:09:06.413Z,98573.78
2023-03-23T20:11:34.597Z,98579.84
2023-03-23T20:14:02.178Z,98577.53
2023-03-23T20:16:29.628Z,98582.66
2023-03-23T20:19:00.266Z,98575.88
2023-03-23T20:21:28.234Z,98578.88
2023-03-23T20:23:58.773Z,98572.22
2023-03-23T20:26:28.815Z,98572.94
2023-03-23T20:28:56.846Z,98572.31
2023-03-23T20:31:26.771Z,98571.00
2023-03-23T20:34:02.091Z,98569.91
2023-03-23T20:36:34.583Z,98560.78
2023-03-23T20:39:06.088Z,98565.66
2023-03-23T20:41:35.741Z,98552.63
2023-03-23T20:44:03.508Z,98556.66
2023-03-23T20:46:31.089Z,98557.16
2023-03-23T20:48:58.577Z,98560.03
2023-03-23T20:51:26.102Z,98556.41
2023-03-23T20:53:54.627Z,98550.09
2023-03-23T20:56:24.375Z,98545.94
2023-03-23T20:58:52.163Z,98547.66
2023-03-23T21:01:21.431Z,98546.06
2023-03-23T21:03:51.966Z,98539.41
2023-03-23T21:06:20.086Z,98542.78
2023-03-23T21:08:47.974Z,98527.28
2023-03-23T21:11:19.252Z,98529.81
2023-03-23T21:13:49.687Z,98530.16
2023-03-23T21:16:18.063Z,98520.56
2023-03-23T21:18:46.151Z,98532.38
2023-03-23T21:21:14.800Z,98524.59
2023-03-23T21:23:46.688Z,98527.59
2023-03-23T21:26:16.518Z,98517.53
2023-03-23T21:28:44.243Z,98516.09
2023-03-23T21:31:15.148Z,98515.72
2023-03-23T21:33:42.592Z,98512.53
2023-03-23T21:36:10.552Z,98505.97
2023-03-23T21:38:38.284Z,98510.97
2023-03-23T21:41:09.941Z,98509.25
2023-03-23T21:43:38.091Z,98505.25
2023-03-23T21:46:08.686Z,98503.28
2023-03-23T21:48:41.261Z,98505.88
2023-03-23T21:51:10.413Z,98500.88
2023-03-23T21:53:37.922Z,98498.56
2023-03-23T21:56:07.650Z,98498.34
2023-03-23T21:58:35.447Z,98494.09
2023-03-23T22:01:02.935Z,98492.97
2023-03-23T22:03:32.718Z,98493.00
2023-03-23T22:06:11.519Z,98495.28
2023-03-23T22:08:41.030Z,98485.44
2023-03-23T22:11:11.523Z,98483.63
2023-03-23T22:13:40.591Z,98480.69
2023-03-23T22:16:13.134Z,98479.59
2023-03-23T22:18:43.135Z,98481.66
2023-03-23T22:21:13.116Z,98479.59
2023-03-23T22:23:41.062Z,98482.63
2023-03-23T22:26:09.961Z,98479.38
2023-03-23T22:28:37.983Z,98473.41
2023-03-23T22:31:09.713Z,98472.53
2023-03-23T22:33:38.461Z,98461.84
2023-03-23T22:36:07.124Z,98452.53
2023-03-23T22:38:37.826Z,98456.03
2023-03-23T22:41:07.217Z,98453.84
2023-03-23T22:43:35.577Z,98454.69
2023-03-23T22:46:03.474Z,98448.97
2023-03-23T22:48:31.470Z,98454.44
2023-03-23T22:50:59.410Z,98455.53
2023-03-23T22:53:27.133Z,98447.88
2023-03-23T22:55:57.934Z,98449.47
2023-03-23T22:58:26.533Z,98447.53
2023-03-23T23:00:57.879Z,98454.44
2023-03-23T23:03:26.570Z,98450.06
2023-03-23T23:05:55.499Z,98448.84
2023-03-23T23:08:23.862Z,98441.22
2023-03-23T23:10:53.405Z,98439.88
2023-03-23T23:13:23.368Z,98445.00
2023-03-23T23:15:53.893Z,98431.97
2023-03-23T23:18:21.812Z,98425.91
2023-03-23T23:20:50.167Z,98426.63
2023-03-23T23:23:17.844Z,98423.00
2023-03-23T23:25:45.756Z,98412.06
2023-03-23T23:28:14.293Z,98400.66
2023-03-23T23:30:43.965Z,98399.31
2023-03-23T23:33:11.692Z,98401.38
2023-03-23T23:35:40.004Z,98397.72
2023-03-23T23:38:10.472Z,98394.22
2023-03-23T23:40:38.139Z,98393.50
2023-03-23T23:43:06.038Z,98383.44
2023-03-23T23:45:34.022Z,98385.50
2023-03-23T23:48:03.485Z,98382.47
2023-03-23T23:50:31.207Z,98392.41
2023-03-23T23:53:00.088Z,98378.09
2023-03-23T23:55:28.607Z,98378.81
2023-03-23T23:57:56.687Z,98365.56
